Adelma Beach, Washington
Current Conditions -  °F | °C
As of 12:56 PM on Friday 31 Oct 2014 (Local Time) from KNUW Reporting Station
Light Rain Light Rain  
Wind Chill: 54°   Ceiling: 4800
Heat Index: 54°   Visibility: 3mi
Dew Point: 50°   Wind: 8mph
Humidity: 86%   Direction: 220°SW
Pressure: 29.81"   Gusts: NA
Location:  48.026°N, 122.859°W
Report Text: KNUW 311956Z 22007KT 3SM -RA SCT008 BKN048 OVC065 12/10 A2981 RMK AO2 SFC VIS 8 SLP099 P0003 T01220100 $
Loading
Personal Weather Stations






























Interactive Weather Map
Tropical Storm Tracking
New forecast layout! Learn more

10-Day Weather Forecast

Advertisements
Track Severe Weather on mobile